sensor_id;sensor_type;location;lat;lon;timestamp;pressure;altitude;pressure_sealevel;temperature;humidity
12951;BME280;6540;50.858;7.232;2022-07-06T00:00:36;51251.41;;;-142.34;20.65
12951;BME280;6540;50.858;7.232;2022-07-06T00:03:01;51217.13;;;-142.34;19.96
12951;BME280;6540;50.858;7.232;2022-07-06T00:05:26;51255.44;;;-142.34;20.28
12951;BME280;6540;50.858;7.232;2022-07-06T00:07:52;51205.03;;;-142.34;20.27
12951;BME280;6540;50.858;7.232;2022-07-06T00:10:17;51213.09;;;-142.34;20.19
12951;BME280;6540;50.858;7.232;2022-07-06T00:12:42;51205.03;;;-142.34;20.18
12951;BME280;6540;50.858;7.232;2022-07-06T00:15:08;51213.09;;;-142.34;20.27
12951;BME280;6540;50.858;7.232;2022-07-06T00:17:34;51247.38;;;-142.34;20.86
12951;BME280;6540;50.858;7.232;2022-07-06T00:20:00;51225.19;;;-142.34;20.34
12951;BME280;6540;50.858;7.232;2022-07-06T00:22:25;51217.13;;;-142.34;20.65
12951;BME280;6540;50.858;7.232;2022-07-06T00:24:51;51229.22;;;-142.34;20.27
12951;BME280;6540;50.858;7.232;2022-07-06T00:27:16;51213.09;;;-142.34;20.35
12951;BME280;6540;50.858;7.232;2022-07-06T00:29:42;51237.28;;;-142.34;20.67
12951;BME280;6540;50.858;7.232;2022-07-06T00:32:10;51201.00;;;-142.34;20.36
12951;BME280;6540;50.858;7.232;2022-07-06T00:34:36;51194.94;;;-142.34;20.55
12951;BME280;6540;50.858;7.232;2022-07-06T00:37:04;51215.09;;;-142.34;20.64
12951;BME280;6540;50.858;7.232;2022-07-06T00:39:30;51332.09;;;-142.34;21.72
12951;BME280;6540;50.858;7.232;2022-07-06T00:41:56;51366.38;;;-142.34;22.45
12951;BME280;6540;50.858;7.232;2022-07-06T00:44:21;51370.41;;;-142.34;22.08
12951;BME280;6540;50.858;7.232;2022-07-06T00:46:47;51436.97;;;-142.34;22.77
12951;BME280;6540;50.858;7.232;2022-07-06T00:49:12;51396.63;;;-142.34;22.31
12951;BME280;6540;50.858;7.232;2022-07-06T00:51:58;51372.44;;;-142.34;21.84
12951;BME280;6540;50.858;7.232;2022-07-06T00:54:25;51354.28;;;-142.34;21.59
12951;BME280;6540;50.858;7.232;2022-07-06T00:56:51;51416.81;;;-142.34;22.53
12951;BME280;6540;50.858;7.232;2022-07-06T00:59:16;51376.47;;;-142.34;21.88
12951;BME280;6540;50.858;7.232;2022-07-06T01:01:41;51406.72;;;-142.34;21.90
12951;BME280;6540;50.858;7.232;2022-07-06T01:04:07;51455.13;;;-142.34;22.84
12951;BME280;6540;50.858;7.232;2022-07-06T01:06:32;51392.59;;;-142.34;21.86
12951;BME280;6540;50.858;7.232;2022-07-06T01:08:59;51307.88;;;-142.34;20.81
12951;BME280;6540;50.858;7.232;2022-07-06T01:11:25;51317.97;;;-142.34;21.32
12951;BME280;6540;50.858;7.232;2022-07-06T01:13:50;51392.59;;;-142.34;21.93
12951;BME280;6540;50.858;7.232;2022-07-06T01:16:17;51392.59;;;-142.34;21.77
12951;BME280;6540;50.858;7.232;2022-07-06T01:18:42;51305.88;;;-142.34;20.79
12951;BME280;6540;50.858;7.232;2022-07-06T01:21:12;51342.19;;;-142.34;20.90
12951;BME280;6540;50.858;7.232;2022-07-06T01:23:43;51277.63;;;-142.34;21.08
12951;BME280;6540;50.858;7.232;2022-07-06T01:26:10;51313.94;;;-142.34;21.35
12951;BME280;6540;50.858;7.232;2022-07-06T01:28:36;51293.78;;;-142.34;20.91
12951;BME280;6540;50.858;7.232;2022-07-06T01:31:01;51326.03;;;-142.34;21.21
12951;BME280;6540;50.858;7.232;2022-07-06T01:33:27;51293.78;;;-142.34;20.38
12951;BME280;6540;50.858;7.232;2022-07-06T01:35:52;51273.59;;;-142.34;20.85
12951;BME280;6540;50.858;7.232;2022-07-06T01:38:17;51313.94;;;-142.34;21.23
12951;BME280;6540;50.858;7.232;2022-07-06T01:40:43;51275.63;;;-142.34;20.49
12951;BME280;6540;50.858;7.232;2022-07-06T01:43:08;51289.75;;;-142.34;20.49
12951;BME280;6540;50.858;7.232;2022-07-06T01:45:34;51287.72;;;-142.34;20.67
12951;BME280;6540;50.858;7.232;2022-07-06T01:47:59;51330.06;;;-142.34;20.58
12951;BME280;6540;50.858;7.232;2022-07-06T01:50:24;51301.84;;;-142.34;20.63
12951;BME280;6540;50.858;7.232;2022-07-06T01:52:49;51309.91;;;-142.34;21.06
12951;BME280;6540;50.858;7.232;2022-07-06T01:55:15;51370.41;;;-142.34;21.85
12951;BME280;6540;50.858;7.232;2022-07-06T01:57:40;51315.97;;;-142.34;21.20
12951;BME280;6540;50.858;7.232;2022-07-06T02:00:07;51295.78;;;-142.34;21.11
12951;BME280;6540;50.858;7.232;2022-07-06T02:02:33;51378.50;;;-142.34;21.52
12951;BME280;6540;50.858;7.232;2022-07-06T02:04:58;51293.78;;;-142.34;20.93
12951;BME280;6540;50.858;7.232;2022-07-06T02:07:24;51445.06;;;-142.34;23.12
12951;BME280;6540;50.858;7.232;2022-07-06T02:09:49;51473.28;;;-142.34;23.16
12951;BME280;6540;50.858;7.232;2022-07-06T02:29:03;51328.06;;;-142.34;20.98
12951;BME280;6540;50.858;7.232;2022-07-06T02:31:29;51338.16;;;-142.34;21.10
12951;BME280;6540;50.858;7.232;2022-07-06T02:33:54;51322.00;;;-142.34;21.01
12951;BME280;6540;50.858;7.232;2022-07-06T02:36:19;51299.81;;;-142.34;20.77
12951;BME280;6540;50.858;7.232;2022-07-06T02:38:45;51320.00;;;-142.34;21.27
12951;BME280;6540;50.858;7.232;2022-07-06T02:41:10;51311.94;;;-142.34;21.32
12951;BME280;6540;50.858;7.232;2022-07-06T02:43:37;51338.16;;;-142.34;21.23
12951;BME280;6540;50.858;7.232;2022-07-06T02:46:03;51378.50;;;-142.34;22.03
12951;BME280;6540;50.858;7.232;2022-07-06T02:48:28;51402.69;;;-142.34;21.79
12951;BME280;6540;50.858;7.232;2022-07-06T02:50:54;51382.53;;;-142.34;21.67
12951;BME280;6540;50.858;7.232;2022-07-06T02:53:20;51376.47;;;-142.34;21.79
12951;BME280;6540;50.858;7.232;2022-07-06T02:55:45;51406.72;;;-142.34;22.32
12951;BME280;6540;50.858;7.232;2022-07-06T02:58:11;51439.00;;;-142.34;22.38
12951;BME280;6540;50.858;7.232;2022-07-06T03:00:36;51414.78;;;-142.34;22.48
12951;BME280;6540;50.858;7.232;2022-07-06T03:03:01;51390.59;;;-142.34;21.87
12951;BME280;6540;50.858;7.232;2022-07-06T03:05:28;51398.66;;;-142.34;22.43
12951;BME280;6540;50.858;7.232;2022-07-06T03:07:53;51394.63;;;-142.34;21.88
12951;BME280;6540;50.858;7.232;2022-07-06T03:10:18;51374.44;;;-142.34;21.99
12951;BME280;6540;50.858;7.232;2022-07-06T03:12:44;51382.53;;;-142.34;21.48
12951;BME280;6540;50.858;7.232;2022-07-06T03:15:09;51390.59;;;-142.34;21.86
12951;BME280;6540;50.858;7.232;2022-07-06T03:17:36;51372.44;;;-142.34;21.47
12951;BME280;6540;50.858;7.232;2022-07-06T03:20:03;51390.59;;;-142.34;21.58
12951;BME280;6540;50.858;7.232;2022-07-06T03:22:29;51408.75;;;-142.34;21.91
12951;BME280;6540;50.858;7.232;2022-07-06T03:24:55;51382.53;;;-142.34;21.86
12951;BME280;6540;50.858;7.232;2022-07-06T03:27:20;51398.66;;;-142.34;21.45
12951;BME280;6540;50.858;7.232;2022-07-06T03:29:45;51406.72;;;-142.34;21.79
12951;BME280;6540;50.858;7.232;2022-07-06T03:32:10;51378.50;;;-142.34;21.57
12951;BME280;6540;50.858;7.232;2022-07-06T03:34:36;51406.72;;;-142.34;21.50
12951;BME280;6540;50.858;7.232;2022-07-06T03:37:01;51406.72;;;-142.34;22.00
12951;BME280;6540;50.858;7.232;2022-07-06T03:39:27;51358.31;;;-142.34;21.59
12951;BME280;6540;50.858;7.232;2022-07-06T03:41:52;51390.59;;;-142.34;21.72
12951;BME280;6540;50.858;7.232;2022-07-06T03:44:17;51406.72;;;-142.34;21.82
12951;BME280;6540;50.858;7.232;2022-07-06T03:46:43;51386.56;;;-142.34;21.59
12951;BME280;6540;50.858;7.232;2022-07-06T03:49:08;51390.59;;;-142.34;21.91
12951;BME280;6540;50.858;7.232;2022-07-06T03:51:34;51402.69;;;-142.34;21.93
12951;BME280;6540;50.858;7.232;2022-07-06T03:53:59;51386.56;;;-142.34;21.96
12951;BME280;6540;50.858;7.232;2022-07-06T03:56:24;51374.44;;;-142.34;21.66
12951;BME280;6540;50.858;7.232;2022-07-06T03:58:53;51390.59;;;-142.34;22.04
12951;BME280;6540;50.858;7.232;2022-07-06T04:01:18;51475.31;;;-142.34;22.60
12951;BME280;6540;50.858;7.232;2022-07-06T04:03:44;51402.69;;;-142.34;21.93
12951;BME280;6540;50.858;7.232;2022-07-06T04:06:10;51410.75;;;-142.34;22.11
12951;BME280;6540;50.858;7.232;2022-07-06T04:08:35;51406.72;;;-142.34;21.95
12951;BME280;6540;50.858;7.232;2022-07-06T04:11:00;51402.69;;;-142.34;21.80
12951;BME280;6540;50.858;7.232;2022-07-06T04:13:26;51386.56;;;-142.34;22.11
12951;BME280;6540;50.858;7.232;2022-07-06T04:15:51;51422.88;;;-142.34;22.08
12951;BME280;6540;50.858;7.232;2022-07-06T04:18:17;51390.59;;;-142.34;22.01
12951;BME280;6540;50.858;7.232;2022-07-06T04:20:42;51414.78;;;-142.34;21.94
12951;BME280;6540;50.858;7.232;2022-07-06T04:23:07;51434.97;;;-142.34;22.04
12951;BME280;6540;50.858;7.232;2022-07-06T04:25:34;51394.63;;;-142.34;22.01
12951;BME280;6540;50.858;7.232;2022-07-06T04:27:59;51358.31;;;-142.34;21.93
12951;BME280;6540;50.858;7.232;2022-07-06T04:30:25;51493.47;;;-142.34;23.31
12951;BME280;6540;50.858;7.232;2022-07-06T04:32:50;51465.22;;;-142.34;23.28
12951;BME280;6540;50.858;7.232;2022-07-06T04:35:15;51499.50;;;-142.34;23.65
12951;BME280;6540;50.858;7.232;2022-07-06T04:37:41;51501.53;;;-142.34;23.65
12951;BME280;6540;50.858;7.232;2022-07-06T04:40:07;51455.13;;;-142.34;23.19
12951;BME280;6540;50.858;7.232;2022-07-06T04:42:32;51515.66;;;-142.34;23.53
12951;BME280;6540;50.858;7.232;2022-07-06T04:44:58;51463.22;;;-142.34;23.42
12951;BME280;6540;50.858;7.232;2022-07-06T04:47:23;51414.78;;;-142.34;22.99
12951;BME280;6540;50.858;7.232;2022-07-06T04:49:48;51360.34;;;-142.34;22.70
12951;BME280;6540;50.858;7.232;2022-07-06T04:52:14;51305.88;;;-142.34;22.13
12951;BME280;6540;50.858;7.232;2022-07-06T04:54:39;51410.75;;;-142.34;21.96
12951;BME280;6540;50.858;7.232;2022-07-06T04:57:05;51374.44;;;-142.34;21.94
12951;BME280;6540;50.858;7.232;2022-07-06T04:59:30;51350.25;;;-142.34;21.57
12951;BME280;6540;50.858;7.232;2022-07-06T05:01:55;51259.47;;;-142.34;22.11
12951;BME280;6540;50.858;7.232;2022-07-06T05:04:21;51241.34;;;-142.34;21.62
12951;BME280;6540;50.858;7.232;2022-07-06T05:06:47;51299.81;;;-142.34;22.01
12951;BME280;6540;50.858;7.232;2022-07-06T05:09:13;51213.09;;;-142.34;21.26
12951;BME280;6540;50.858;7.232;2022-07-06T05:11:38;51249.41;;;-142.34;21.45
12951;BME280;6540;50.858;7.232;2022-07-06T05:14:05;51277.63;;;-142.34;21.52
12951;BME280;6540;50.858;7.232;2022-07-06T05:16:30;51328.06;;;-142.34;22.11
12951;BME280;6540;50.858;7.232;2022-07-06T05:18:56;51289.75;;;-142.34;21.59
12951;BME280;6540;50.858;7.232;2022-07-06T05:21:21;51334.13;;;-142.34;21.61
12951;BME280;6540;50.858;7.232;2022-07-06T05:23:46;51352.28;;;-142.34;21.55
12951;BME280;6540;50.858;7.232;2022-07-06T05:26:12;51285.72;;;-142.34;21.52
12951;BME280;6540;50.858;7.232;2022-07-06T05:28:37;51295.78;;;-142.34;21.54
12951;BME280;6540;50.858;7.232;2022-07-06T05:31:03;51281.66;;;-142.34;21.63
12951;BME280;6540;50.858;7.232;2022-07-06T05:33:28;51277.63;;;-142.34;21.51
12951;BME280;6540;50.858;7.232;2022-07-06T05:35:54;51291.75;;;-142.34;21.17
12951;BME280;6540;50.858;7.232;2022-07-06T05:38:19;51257.47;;;-142.34;21.25
12951;BME280;6540;50.858;7.232;2022-07-06T05:40:45;51291.75;;;-142.34;21.25
12951;BME280;6540;50.858;7.232;2022-07-06T05:43:10;51249.41;;;-142.34;20.61
12951;BME280;6540;50.858;7.232;2022-07-06T05:45:35;51293.78;;;-142.34;21.83
12951;BME280;6540;50.858;7.232;2022-07-06T05:48:01;51380.50;;;-142.34;22.52
12951;BME280;6540;50.858;7.232;2022-07-06T05:50:45;51334.13;;;-142.34;22.15
12951;BME280;6540;50.858;7.232;2022-07-06T05:53:10;51241.34;;;-142.34;20.82
12951;BME280;6540;50.858;7.232;2022-07-06T05:55:36;51301.84;;;-142.34;21.31
12951;BME280;6540;50.858;7.232;2022-07-06T05:58:01;51338.16;;;-142.34;21.94
12951;BME280;6540;50.858;7.232;2022-07-06T06:00:27;51386.56;;;-142.34;23.02
12951;BME280;6540;50.858;7.232;2022-07-06T06:02:53;51394.63;;;-142.34;23.31
12951;BME280;6540;50.858;7.232;2022-07-06T06:05:19;51320.00;;;-142.34;21.69
12951;BME280;6540;50.858;7.232;2022-07-06T06:07:45;51370.41;;;-142.34;22.13
12951;BME280;6540;50.858;7.232;2022-07-06T06:10:13;51398.66;;;-142.34;23.03
12951;BME280;6540;50.858;7.232;2022-07-06T06:12:39;51317.97;;;-142.34;21.54
12951;BME280;6540;50.858;7.232;2022-07-06T06:15:06;51277.63;;;-142.34;21.59
12951;BME280;6540;50.858;7.232;2022-07-06T06:17:31;51330.06;;;-142.34;21.02
12951;BME280;6540;50.858;7.232;2022-07-06T06:19:58;51330.06;;;-142.34;21.74
12951;BME280;6540;50.858;7.232;2022-07-06T06:22:23;51390.59;;;-142.34;22.85
12951;BME280;6540;50.858;7.232;2022-07-06T06:24:49;51249.41;;;-142.34;20.79
12951;BME280;6540;50.858;7.232;2022-07-06T06:27:15;51229.22;;;-142.34;20.98
12951;BME280;6540;50.858;7.232;2022-07-06T06:29:40;51265.53;;;-142.34;20.62
12951;BME280;6540;50.858;7.232;2022-07-06T06:32:07;51194.94;;;-142.34;20.86
12951;BME280;6540;50.858;7.232;2022-07-06T06:34:32;51350.25;;;-142.34;21.61
12951;BME280;6540;50.858;7.232;2022-07-06T06:36:58;51211.06;;;-142.34;21.40
12951;BME280;6540;50.858;7.232;2022-07-06T06:39:23;51209.06;;;-142.34;20.86
12951;BME280;6540;50.858;7.232;2022-07-06T06:41:49;51380.50;;;-142.34;22.15
12951;BME280;6540;50.858;7.232;2022-07-06T06:44:14;51237.28;;;-142.34;21.19
12951;BME280;6540;50.858;7.232;2022-07-06T06:46:40;51182.84;;;-142.34;20.76
12951;BME280;6540;50.858;7.232;2022-07-06T06:49:06;51249.41;;;-142.34;20.37
12951;BME280;6540;50.858;7.232;2022-07-06T06:51:32;51249.41;;;-142.34;20.69
12951;BME280;6540;50.858;7.232;2022-07-06T06:53:57;51198.97;;;-142.34;20.17
12951;BME280;6540;50.858;7.232;2022-07-06T06:56:22;51209.06;;;-142.34;20.57
12951;BME280;6540;50.858;7.232;2022-07-06T06:58:48;51144.50;;;-142.34;20.79
12951;BME280;6540;50.858;7.232;2022-07-06T07:01:13;51203.00;;;-142.34;20.92
12951;BME280;6540;50.858;7.232;2022-07-06T07:03:38;51249.41;;;-142.34;21.20
12951;BME280;6540;50.858;7.232;2022-07-06T07:06:04;51055.78;;;-142.34;20.24
12951;BME280;6540;50.858;7.232;2022-07-06T07:08:29;51124.34;;;-142.34;20.66
12951;BME280;6540;50.858;7.232;2022-07-06T07:10:55;51239.31;;;-142.34;21.45
12951;BME280;6540;50.858;7.232;2022-07-06T07:13:20;51338.16;;;-142.34;22.26
12951;BME280;6540;50.858;7.232;2022-07-06T07:15:45;51414.78;;;-142.34;23.02
12951;BME280;6540;50.858;7.232;2022-07-06T07:18:11;51430.94;;;-142.34;22.92
12951;BME280;6540;50.858;7.232;2022-07-06T07:20:36;51362.34;;;-142.34;21.58
12951;BME280;6540;50.858;7.232;2022-07-06T07:23:02;51366.38;;;-142.34;22.06
12951;BME280;6540;50.858;7.232;2022-07-06T07:25:27;51390.59;;;-142.34;21.84
12951;BME280;6540;50.858;7.232;2022-07-06T07:27:53;51402.69;;;-142.34;22.58
12951;BME280;6540;50.858;7.232;2022-07-06T07:30:19;51364.38;;;-142.34;21.43
12951;BME280;6540;50.858;7.232;2022-07-06T07:32:45;51414.78;;;-142.34;22.41
12951;BME280;6540;50.858;7.232;2022-07-06T07:35:10;51487.41;;;-142.34;24.12
12951;BME280;6540;50.858;7.232;2022-07-06T07:37:36;51491.44;;;-142.34;23.29
12951;BME280;6540;50.858;7.232;2022-07-06T07:40:01;51436.97;;;-142.34;22.78
12951;BME280;6540;50.858;7.232;2022-07-06T07:42:27;51376.47;;;-142.34;21.80
12951;BME280;6540;50.858;7.232;2022-07-06T07:44:53;51350.25;;;-142.34;21.50
12951;BME280;6540;50.858;7.232;2022-07-06T07:47:18;51334.13;;;-142.34;22.09
12951;BME280;6540;50.858;7.232;2022-07-06T07:49:44;51273.59;;;-142.34;21.15
12951;BME280;6540;50.858;7.232;2022-07-06T07:52:09;51426.91;;;-142.34;22.27
12951;BME280;6540;50.858;7.232;2022-07-06T07:54:35;51326.03;;;-142.34;21.62
12951;BME280;6540;50.858;7.232;2022-07-06T07:57:00;51386.56;;;-142.34;22.43
12951;BME280;6540;50.858;7.232;2022-07-06T07:59:26;51434.97;;;-142.34;23.13
12951;BME280;6540;50.858;7.232;2022-07-06T08:01:51;51400.69;;;-142.34;22.31
12951;BME280;6540;50.858;7.232;2022-07-06T08:04:17;51360.34;;;-142.34;21.54
12951;BME280;6540;50.858;7.232;2022-07-06T08:06:43;51398.66;;;-142.34;21.83
12951;BME280;6540;50.858;7.232;2022-07-06T08:09:08;51330.06;;;-142.34;21.35
12951;BME280;6540;50.858;7.232;2022-07-06T08:11:34;51279.66;;;-142.34;21.08
12951;BME280;6540;50.858;7.232;2022-07-06T08:14:00;51342.19;;;-142.34;21.17
12951;BME280;6540;50.858;7.232;2022-07-06T08:16:26;51418.84;;;-142.34;22.53
12951;BME280;6540;50.858;7.232;2022-07-06T08:18:53;51370.41;;;-142.34;21.99
12951;BME280;6540;50.858;7.232;2022-07-06T08:21:18;51307.88;;;-142.34;20.74
12951;BME280;6540;50.858;7.232;2022-07-06T08:23:44;51301.84;;;-142.34;20.95
12951;BME280;6540;50.858;7.232;2022-07-06T08:26:09;51342.19;;;-142.34;21.64
12951;BME280;6540;50.858;7.232;2022-07-06T08:28:34;51362.34;;;-142.34;22.01
12951;BME280;6540;50.858;7.232;2022-07-06T08:31:00;51382.53;;;-142.34;21.82
12951;BME280;6540;50.858;7.232;2022-07-06T08:33:25;51394.63;;;-142.34;21.87
12951;BME280;6540;50.858;7.232;2022-07-06T08:35:51;51362.34;;;-142.34;21.62
12951;BME280;6540;50.858;7.232;2022-07-06T08:38:16;51358.31;;;-142.34;21.19
12951;BME280;6540;50.858;7.232;2022-07-06T08:40:44;51273.59;;;-142.34;20.82
12951;BME280;6540;50.858;7.232;2022-07-06T08:43:11;51434.97;;;-142.34;22.54
12951;BME280;6540;50.858;7.232;2022-07-06T08:45:40;51414.78;;;-142.34;22.66
12951;BME280;6540;50.858;7.232;2022-07-06T08:48:11;51342.19;;;-142.34;21.48
12951;BME280;6540;50.858;7.232;2022-07-06T08:50:37;51406.72;;;-142.34;22.45
12951;BME280;6540;50.858;7.232;2022-07-06T08:53:03;51390.59;;;-142.34;22.22
12951;BME280;6540;50.858;7.232;2022-07-06T08:55:29;51394.63;;;-142.34;21.62
12951;BME280;6540;50.858;7.232;2022-07-06T08:57:55;51313.94;;;-142.34;21.11
12951;BME280;6540;50.858;7.232;2022-07-06T09:00:24;51382.53;;;-142.34;21.83
12951;BME280;6540;50.858;7.232;2022-07-06T09:02:50;51457.16;;;-142.34;21.96
12951;BME280;6540;50.858;7.232;2022-07-06T09:05:21;51366.38;;;-142.34;21.18
12951;BME280;6540;50.858;7.232;2022-07-06T09:07:49;51398.66;;;-142.34;21.46
12951;BME280;6540;50.858;7.232;2022-07-06T09:10:17;51307.88;;;-142.34;20.58
12951;BME280;6540;50.858;7.232;2022-07-06T09:12:42;51356.31;;;-142.34;21.27
12951;BME280;6540;50.858;7.232;2022-07-06T09:15:08;51356.31;;;-142.34;21.45
12951;BME280;6540;50.858;7.232;2022-07-06T09:17:38;51402.69;;;-142.34;22.26
12951;BME280;6540;50.858;7.232;2022-07-06T09:20:10;51392.59;;;-142.34;22.08
12951;BME280;6540;50.858;7.232;2022-07-06T09:22:36;51410.75;;;-142.34;22.78
12951;BME280;6540;50.858;7.232;2022-07-06T09:25:09;51392.59;;;-142.34;21.90
12951;BME280;6540;50.858;7.232;2022-07-06T09:27:39;51390.59;;;-142.34;21.98
12951;BME280;6540;50.858;7.232;2022-07-06T09:30:07;51418.84;;;-142.34;22.84
12951;BME280;6540;50.858;7.232;2022-07-06T09:32:42;51301.84;;;-142.34;20.87
12951;BME280;6540;50.858;7.232;2022-07-06T09:35:08;51376.47;;;-142.34;22.06
12951;BME280;6540;50.858;7.232;2022-07-06T09:37:44;51366.38;;;-142.34;21.72
12951;BME280;6540;50.858;7.232;2022-07-06T09:40:19;51313.94;;;-142.34;21.30
12951;BME280;6540;50.858;7.232;2022-07-06T09:42:44;51382.53;;;-142.34;21.56
12951;BME280;6540;50.858;7.232;2022-07-06T09:45:10;51309.91;;;-142.34;20.96
12951;BME280;6540;50.858;7.232;2022-07-06T09:47:36;51301.84;;;-142.34;19.97
12951;BME280;6540;50.858;7.232;2022-07-06T09:50:05;51299.81;;;-142.34;19.78
12951;BME280;6540;50.858;7.232;2022-07-06T09:52:33;51196.97;;;-142.34;19.76
12951;BME280;6540;50.858;7.232;2022-07-06T09:54:59;51267.56;;;-142.34;20.05
12951;BME280;6540;50.858;7.232;2022-07-06T09:57:24;51330.06;;;-142.34;20.91
12951;BME280;6540;50.858;7.232;2022-07-06T09:59:51;51313.94;;;-142.34;21.15
12951;BME280;6540;50.858;7.232;2022-07-06T10:02:17;51301.84;;;-142.34;20.75
12951;BME280;6540;50.858;7.232;2022-07-06T10:04:43;51400.69;;;-142.34;21.77
12951;BME280;6540;50.858;7.232;2022-07-06T10:07:09;51336.13;;;-142.34;20.94
12951;BME280;6540;50.858;7.232;2022-07-06T10:09:37;51428.91;;;-142.34;22.43
12951;BME280;6540;50.858;7.232;2022-07-06T10:12:03;51420.84;;;-142.34;22.55
12951;BME280;6540;50.858;7.232;2022-07-06T10:14:32;51356.31;;;-142.34;21.45
12951;BME280;6540;50.858;7.232;2022-07-06T10:16:59;51445.06;;;-142.34;22.96
12951;BME280;6540;50.858;7.232;2022-07-06T10:19:26;51378.50;;;-142.34;21.49
12951;BME280;6540;50.858;7.232;2022-07-06T10:21:52;51422.88;;;-142.34;23.08
12951;BME280;6540;50.858;7.232;2022-07-06T10:24:20;51406.72;;;-142.34;21.87
12951;BME280;6540;50.858;7.232;2022-07-06T10:26:46;51416.81;;;-142.34;22.05
12951;BME280;6540;50.858;7.232;2022-07-06T10:29:13;51418.84;;;-142.34;22.30
12951;BME280;6540;50.858;7.232;2022-07-06T10:31:40;51374.44;;;-142.34;21.87
12951;BME280;6540;50.858;7.232;2022-07-06T10:34:10;51426.91;;;-142.34;23.14
12951;BME280;6540;50.858;7.232;2022-07-06T10:36:38;51475.31;;;-142.34;23.32
12951;BME280;6540;50.858;7.232;2022-07-06T10:39:03;51489.44;;;-142.34;23.86
12951;BME280;6540;50.858;7.232;2022-07-06T10:41:49;51420.84;;;-142.34;22.52
12951;BME280;6540;50.858;7.232;2022-07-06T10:44:20;51465.22;;;-142.34;23.38
12951;BME280;6540;50.858;7.232;2022-07-06T10:46:56;51424.88;;;-142.34;22.60
12951;BME280;6540;50.858;7.232;2022-07-06T10:49:23;51374.44;;;-142.34;22.84
12951;BME280;6540;50.858;7.232;2022-07-06T10:51:49;51475.31;;;-142.34;23.65
12951;BME280;6540;50.858;7.232;2022-07-06T10:54:15;51392.59;;;-142.34;22.03
12951;BME280;6540;50.858;7.232;2022-07-06T10:56:48;51400.69;;;-142.34;22.41
12951;BME280;6540;50.858;7.232;2022-07-06T10:59:14;51471.28;;;-142.34;23.64
12951;BME280;6540;50.858;7.232;2022-07-06T11:01:40;51459.16;;;-142.34;23.01
12951;BME280;6540;50.858;7.232;2022-07-06T11:04:09;51362.34;;;-142.34;21.95
12951;BME280;6540;50.858;7.232;2022-07-06T11:06:39;51376.47;;;-142.34;22.26
12951;BME280;6540;50.858;7.232;2022-07-06T11:09:09;51414.78;;;-142.34;22.27
12951;BME280;6540;50.858;7.232;2022-07-06T11:14:14;51414.78;;;-142.34;22.13
12951;BME280;6540;50.858;7.232;2022-07-06T11:19:22;51404.72;;;-142.34;22.53
12951;BME280;6540;50.858;7.232;2022-07-06T11:22:07;51372.44;;;-142.34;21.80
12951;BME280;6540;50.858;7.232;2022-07-06T11:24:38;51336.13;;;-142.34;21.55
12951;BME280;6540;50.858;7.232;2022-07-06T11:27:04;51305.88;;;-142.34;21.28
12951;BME280;6540;50.858;7.232;2022-07-06T11:29:32;51390.59;;;-142.34;21.67
12951;BME280;6540;50.858;7.232;2022-07-06T11:32:00;51301.84;;;-142.34;20.67
12951;BME280;6540;50.858;7.232;2022-07-06T11:34:37;51267.56;;;-142.34;20.68
12951;BME280;6540;50.858;7.232;2022-07-06T11:37:05;51322.00;;;-142.34;21.20
12951;BME280;6540;50.858;7.232;2022-07-06T11:39:33;51374.44;;;-142.34;21.45
12951;BME280;6540;50.858;7.232;2022-07-06T11:42:00;51281.66;;;-142.34;20.32
12951;BME280;6540;50.858;7.232;2022-07-06T11:44:29;51245.38;;;-142.34;19.73
12951;BME280;6540;50.858;7.232;2022-07-06T11:46:55;51396.63;;;-142.34;22.13
12951;BME280;6540;50.858;7.232;2022-07-06T11:49:22;51366.38;;;-142.34;21.61
12951;BME280;6540;50.858;7.232;2022-07-06T11:51:48;51390.59;;;-142.34;21.64
12951;BME280;6540;50.858;7.232;2022-07-06T11:54:17;51414.78;;;-142.34;22.31
12951;BME280;6540;50.858;7.232;2022-07-06T11:59:11;51382.53;;;-142.34;21.63
12951;BME280;6540;50.858;7.232;2022-07-06T12:01:36;51432.94;;;-142.34;22.27
12951;BME280;6540;50.858;7.232;2022-07-06T12:04:07;51422.88;;;-142.34;22.17
12951;BME280;6540;50.858;7.232;2022-07-06T12:06:33;51414.78;;;-142.34;21.73
12951;BME280;6540;50.858;7.232;2022-07-06T12:09:00;51432.94;;;-142.34;21.99
12951;BME280;6540;50.858;7.232;2022-07-06T12:11:30;51320.00;;;-142.34;20.89
12951;BME280;6540;50.858;7.232;2022-07-06T12:14:00;51261.50;;;-142.34;19.68
12951;BME280;6540;50.858;7.232;2022-07-06T12:16:31;51257.47;;;-142.34;20.19
12951;BME280;6540;50.858;7.232;2022-07-06T12:18:58;51293.78;;;-142.34;20.13
12951;BME280;6540;50.858;7.232;2022-07-06T12:21:24;51309.91;;;-142.34;20.77
12951;BME280;6540;50.858;7.232;2022-07-06T12:23:51;51289.75;;;-142.34;20.65
12951;BME280;6540;50.858;7.232;2022-07-06T12:26:19;51348.22;;;-142.34;21.80
12951;BME280;6540;50.858;7.232;2022-07-06T12:28:47;51398.66;;;-142.34;21.43
12951;BME280;6540;50.858;7.232;2022-07-06T12:31:34;51257.47;;;-142.34;20.04
12951;BME280;6540;50.858;7.232;2022-07-06T12:34:01;51219.16;;;-142.34;19.50
12951;BME280;6540;50.858;7.232;2022-07-06T12:36:26;51209.06;;;-142.34;19.34
12951;BME280;6540;50.858;7.232;2022-07-06T12:38:52;51221.16;;;-142.34;19.76
12951;BME280;6540;50.858;7.232;2022-07-06T12:41:29;51253.44;;;-142.34;19.83
12951;BME280;6540;50.858;7.232;2022-07-06T12:44:06;51299.81;;;-142.34;19.99
12951;BME280;6540;50.858;7.232;2022-07-06T12:46:33;51326.03;;;-142.34;20.35
12951;BME280;6540;50.858;7.232;2022-07-06T12:49:01;51283.69;;;-142.34;20.00
12951;BME280;6540;50.858;7.232;2022-07-06T12:51:27;51313.94;;;-142.34;20.39
12951;BME280;6540;50.858;7.232;2022-07-06T12:54:11;51334.13;;;-142.34;19.95
12951;BME280;6540;50.858;7.232;2022-07-06T12:56:36;51315.97;;;-142.34;19.70
12951;BME280;6540;50.858;7.232;2022-07-06T12:59:01;51221.16;;;-142.34;18.88
12951;BME280;6540;50.858;7.232;2022-07-06T13:01:27;51172.75;;;-142.34;18.94
12951;BME280;6540;50.858;7.232;2022-07-06T13:03:57;51168.72;;;-142.34;18.95
12951;BME280;6540;50.858;7.232;2022-07-06T13:06:33;51223.19;;;-142.34;19.78
12951;BME280;6540;50.858;7.232;2022-07-06T13:08:59;51346.22;;;-142.34;20.47
12951;BME280;6540;50.858;7.232;2022-07-06T13:11:25;51285.72;;;-142.34;19.92